Time,TemperatureF,DewpointF,PressureIn,WindDirection,WindDirectionDegrees,WindSpeedMPH,WindSpeedGustMPH,Humidity,HourlyPrecipIn,Conditions,Clouds,dailyrainin,SoftwareType,DateUTC
2013-05-24 00:15:00,65.1,57.0,29.71,West,270,0.0,-999.0,75,-99.99,,,0.00,Acu-Link.com,2013-05-24 04:15:00,
2013-05-24 00:30:00,64.4,56.7,29.71,NW,315,0.0,-999.0,76,-99.99,,,0.00,Acu-Link.com,2013-05-24 04:30:00,
2013-05-24 00:45:00,63.5,56.9,29.71,West,270,2.2,-999.0,79,-99.99,,,0.00,Acu-Link.com,2013-05-24 04:45:00,
2013-05-24 01:00:00,63.3,56.7,29.71,SSW,202,2.7,-999.0,79,-99.99,,,0.00,Acu-Link.com,2013-05-24 05:00:00,
2013-05-24 01:16:00,63.3,56.3,29.71,West,270,3.2,-999.0,78,-99.99,,,0.00,Acu-Link.com,2013-05-24 05:16:00,
2013-05-24 01:31:00,63.7,56.3,29.72,North,0,1.1,-999.0,77,-99.99,,,0.00,Acu-Link.com,2013-05-24 05:31:00,
2013-05-24 01:46:00,63.3,56.0,29.72,North,0,1.7,-999.0,77,-99.99,,,0.00,Acu-Link.com,2013-05-24 05:46:00,
2013-05-24 02:02:00,62.8,55.5,29.72,NNW,337,0.0,-999.0,77,-99.99,,,0.00,Acu-Link.com,2013-05-24 06:02:00,
2013-05-24 02:17:00,62.2,55.6,29.72,WNW,292,1.1,-999.0,79,-99.99,,,0.00,Acu-Link.com,2013-05-24 06:17:00,
2013-05-24 02:32:00,61.3,55.4,29.72,SE,135,0.0,-999.0,81,-99.99,,,0.00,Acu-Link.com,2013-05-24 06:32:00,
2013-05-24 02:47:00,60.1,55.6,29.72,North,0,1.7,-999.0,85,-99.99,,,0.00,Acu-Link.com,2013-05-24 06:47:00,
2013-05-24 03:03:00,59.7,55.5,29.73,ENE,67,1.7,-999.0,86,-99.99,,,0.00,Acu-Link.com,2013-05-24 07:03:00,
2013-05-24 03:18:00,59.7,55.5,29.72,East,90,0.0,-999.0,86,-99.99,,,0.00,Acu-Link.com,2013-05-24 07:18:00,
2013-05-24 03:33:00,59.4,55.5,29.72,NE,45,0.0,-999.0,87,-99.99,,,0.00,Acu-Link.com,2013-05-24 07:33:00,
2013-05-24 03:49:00,58.6,55.4,29.72,WNW,292,1.1,-999.0,89,-99.99,,,0.00,Acu-Link.com,2013-05-24 07:49:00,
2013-05-24 04:04:00,57.4,54.5,29.73,West,270,0.0,-999.0,90,-99.99,,,0.00,Acu-Link.com,2013-05-24 08:04:00,
2013-05-24 04:19:00,57.4,54.8,29.73,NNW,337,1.1,-999.0,91,-99.99,,,0.00,Acu-Link.com,2013-05-24 08:19:00,
2013-05-24 04:34:00,57.0,54.7,29.74,WNW,292,0.0,-999.0,92,-99.99,,,0.00,Acu-Link.com,2013-05-24 08:34:00,
2013-05-24 04:50:00,56.8,54.5,29.74,WSW,247,0.0,-999.0,92,-99.99,,,0.00,Acu-Link.com,2013-05-24 08:50:00,
2013-05-24 05:05:00,56.7,54.4,29.74,WSW,247,0.0,-999.0,92,-99.99,,,0.00,Acu-Link.com,2013-05-24 09:05:00,
2013-05-24 05:20:00,56.7,54.4,29.74,NNW,337,0.0,-999.0,92,-99.99,,,0.00,Acu-Link.com,2013-05-24 09:20:00,
2013-05-24 05:35:00,56.1,54.1,29.74,ESE,112,1.7,-999.0,93,-99.99,,,0.00,Acu-Link.com,2013-05-24 09:35:00,
2013-05-24 05:50:00,55.9,54.2,29.74,East,90,2.2,-999.0,94,-99.99,,,0.00,Acu-Link.com,2013-05-24 09:50:00,
2013-05-24 06:06:00,55.4,53.7,29.74,East,90,1.1,-999.0,94,-99.99,,,0.00,Acu-Link.com,2013-05-24 10:06:00,
2013-05-24 06:21:00,55.6,53.9,29.75,ESE,112,1.1,-999.0,94,-99.99,,,0.00,Acu-Link.com,2013-05-24 10:21:00,
2013-05-24 06:36:00,55.9,53.9,29.76,West,270,0.0,-999.0,93,-99.99,,,0.00,Acu-Link.com,2013-05-24 10:36:00,
2013-05-24 06:52:00,55.9,53.9,29.77,West,270,0.0,-999.0,93,-99.99,,,0.00,Acu-Link.com,2013-05-24 10:52:00,
2013-05-24 07:07:00,55.9,54.2,29.78,WNW,292,0.0,-999.0,94,-99.99,,,0.00,Acu-Link.com,2013-05-24 11:07:00,
2013-05-24 07:22:00,56.5,53.9,29.78,SW,225,0.0,-999.0,91,-99.99,,,0.00,Acu-Link.com,2013-05-24 11:22:00,
2013-05-24 07:38:00,57.4,55.1,29.79,WSW,247,1.1,-999.0,92,-99.99,,,0.00,Acu-Link.com,2013-05-24 11:38:00,
2013-05-24 07:53:00,58.8,55.9,29.80,West,270,2.2,-999.0,90,-99.99,,,0.00,Acu-Link.com,2013-05-24 11:53:00,
2013-05-24 08:08:00,61.2,57.0,29.81,WSW,247,1.1,-999.0,86,-99.99,,,0.00,Acu-Link.com,2013-05-24 12:08:00,
2013-05-24 08:23:00,65.7,58.3,29.81,West,270,2.7,-999.0,77,-99.99,,,0.00,Acu-Link.com,2013-05-24 12:23:00,
2013-05-24 08:38:00,68.9,60.3,29.82,WSW,247,1.7,-999.0,74,-99.99,,,0.00,Acu-Link.com,2013-05-24 12:38:00,
2013-05-24 08:53:00,70.7,60.4,29.82,West,270,1.7,-999.0,70,-99.99,,,0.00,Acu-Link.com,2013-05-24 12:53:00,
2013-05-24 09:09:00,71.2,59.7,29.83,WSW,247,3.2,-999.0,67,-99.99,,,0.00,Acu-Link.com,2013-05-24 13:09:00,
2013-05-24 09:24:00,73.9,60.9,29.84,WNW,292,2.2,-999.0,64,-99.99,,,0.00,Acu-Link.com,2013-05-24 13:24:00,
2013-05-24 09:39:00,73.0,58.3,29.85,SSW,202,1.7,-999.0,60,-99.99,,,0.00,Acu-Link.com,2013-05-24 13:39:00,
2013-05-24 09:55:00,71.8,58.5,29.85,NNW,337,2.2,-999.0,63,-99.99,,,0.00,Acu-Link.com,2013-05-24 13:55:00,
2013-05-24 10:10:00,71.1,55.6,29.85,West,270,2.7,-999.0,58,-99.99,,,0.00,Acu-Link.com,2013-05-24 14:10:00,
2013-05-24 10:25:00,72.1,56.5,29.86,West,270,2.2,-999.0,58,-99.99,,,0.00,Acu-Link.com,2013-05-24 14:25:00,
2013-05-24 10:40:00,72.7,56.1,29.87,West,270,3.7,-999.0,56,-99.99,,,0.00,Acu-Link.com,2013-05-24 14:40:00,
2013-05-24 10:56:00,73.4,56.2,29.87,East,90,1.7,-999.0,55,-99.99,,,0.00,Acu-Link.com,2013-05-24 14:56:00,
2013-05-24 11:11:00,73.9,56.7,29.88,West,270,1.7,-999.0,55,-99.99,,,0.00,Acu-Link.com,2013-05-24 15:11:00,
2013-05-24 11:26:00,74.1,56.4,29.89,WNW,292,3.2,-999.0,54,-99.99,,,0.00,Acu-Link.com,2013-05-24 15:26:00,
2013-05-24 11:41:00,75.0,58.2,29.89,West,270,1.7,-999.0,56,-99.99,,,0.00,Acu-Link.com,2013-05-24 15:41:00,
2013-05-24 11:56:00,73.4,54.7,29.89,ESE,112,2.2,-999.0,52,-99.99,,,0.00,Acu-Link.com,2013-05-24 15:56:00,
2013-05-24 12:11:00,74.8,55.4,29.90,ESE,112,3.7,-999.0,51,-99.99,,,0.00,Acu-Link.com,2013-05-24 16:11:00,
2013-05-24 12:26:00,74.8,53.8,29.89,WSW,247,2.7,-999.0,48,-99.99,,,0.00,Acu-Link.com,2013-05-24 16:26:00,
2013-05-24 12:42:00,76.3,52.8,29.89,West,270,2.7,-999.0,44,-99.99,,,0.00,Acu-Link.com,2013-05-24 16:42:00,
2013-05-24 12:57:00,76.8,53.2,29.90,SSW,202,3.2,-999.0,44,-99.99,,,0.00,Acu-Link.com,2013-05-24 16:57:00,
2013-05-24 13:12:00,77.4,55.0,29.90,South,180,2.2,-999.0,46,-99.99,,,0.00,Acu-Link.com,2013-05-24 17:12:00,
2013-05-24 13:28:00,77.5,51.3,29.90,West,270,2.7,-999.0,40,-99.99,,,0.00,Acu-Link.com,2013-05-24 17:28:00,
2013-05-24 13:43:00,77.5,51.9,29.90,WNW,292,2.7,-999.0,41,-99.99,,,0.00,Acu-Link.com,2013-05-24 17:43:00,
2013-05-24 13:58:00,78.6,51.6,29.90,NE,45,2.2,-999.0,39,-99.99,,,0.00,Acu-Link.com,2013-05-24 17:58:00,
2013-05-24 14:14:00,78.4,49.2,29.90,WSW,247,5.3,-999.0,36,-99.99,,,0.00,Acu-Link.com,2013-05-24 18:14:00,
2013-05-24 14:29:00,79.0,49.7,29.90,West,270,3.2,-999.0,36,-99.99,,,0.00,Acu-Link.com,2013-05-24 18:29:00,
2013-05-24 14:44:00,79.0,49.7,29.89,NNE,22,1.7,-999.0,36,-99.99,,,0.00,Acu-Link.com,2013-05-24 18:44:00,
2013-05-24 14:59:00,78.8,49.6,29.89,East,90,2.2,-999.0,36,-99.99,,,0.00,Acu-Link.com,2013-05-24 18:59:00,
2013-05-24 15:15:00,79.3,47.7,29.89,WNW,292,1.7,-999.0,33,-99.99,,,0.00,Acu-Link.com,2013-05-24 19:15:00,
2013-05-24 15:30:00,79.3,50.0,29.89,South,180,2.7,-999.0,36,-99.99,,,0.00,Acu-Link.com,2013-05-24 19:30:00,
2013-05-24 15:45:00,78.8,47.2,29.89,West,270,2.7,-999.0,33,-99.99,,,0.00,Acu-Link.com,2013-05-24 19:45:00,
2013-05-24 16:01:00,78.1,44.1,29.89,ESE,112,1.1,-999.0,30,-99.99,,,0.00,Acu-Link.com,2013-05-24 20:01:00,
2013-05-24 16:16:00,78.8,46.4,29.90,West,270,1.7,-999.0,32,-99.99,,,0.00,Acu-Link.com,2013-05-24 20:16:00,
2013-05-24 16:31:00,78.3,45.2,29.89,NNW,337,2.2,-999.0,31,-99.99,,,0.00,Acu-Link.com,2013-05-24 20:31:00,
2013-05-24 16:46:00,77.9,41.2,29.90,West,270,4.7,-999.0,27,-99.99,,,0.00,Acu-Link.com,2013-05-24 20:46:00,
2013-05-24 17:02:00,78.3,40.6,29.90,WNW,292,3.2,-999.0,26,-99.99,,,0.00,Acu-Link.com,2013-05-24 21:02:00,
2013-05-24 17:17:00,78.4,41.6,29.90,West,270,1.7,-999.0,27,-99.99,,,0.00,Acu-Link.com,2013-05-24 21:17:00,
2013-05-24 17:32:00,77.5,42.7,29.90,NW,315,2.7,-999.0,29,-99.99,,,0.00,Acu-Link.com,2013-05-24 21:32:00,
2013-05-24 17:47:00,77.0,41.4,29.91,West,270,2.2,-999.0,28,-99.99,,,0.00,Acu-Link.com,2013-05-24 21:47:00,
2013-05-24 18:03:00,77.4,42.6,29.91,East,90,1.7,-999.0,29,-99.99,,,0.00,Acu-Link.com,2013-05-24 22:03:00,
2013-05-24 18:18:00,81.5,41.2,29.91,ESE,112,4.7,-999.0,24,-99.99,,,0.00,Acu-Link.com,2013-05-24 22:18:00,
2013-05-24 18:33:00,81.9,41.5,29.92,SW,225,1.7,-999.0,24,-99.99,,,0.00,Acu-Link.com,2013-05-24 22:33:00,
2013-05-24 18:49:00,79.7,40.7,29.92,NW,315,2.7,-999.0,25,-99.99,,,0.00,Acu-Link.com,2013-05-24 22:49:00,
2013-05-24 19:04:00,78.3,42.5,29.92,West,270,0.0,-999.0,28,-99.99,,,0.00,Acu-Link.com,2013-05-24 23:04:00,
2013-05-24 19:19:00,75.7,42.9,29.93,WNW,292,1.7,-999.0,31,-99.99,,,0.00,Acu-Link.com,2013-05-24 23:19:00,
2013-05-24 19:35:00,73.4,42.5,29.93,WNW,292,0.0,-999.0,33,-99.99,,,0.00,Acu-Link.com,2013-05-24 23:35:00,
2013-05-24 19:50:00,70.7,41.7,29.94,NW,315,2.2,-999.0,35,-99.99,,,0.00,Acu-Link.com,2013-05-24 23:50:00,
2013-05-24 20:05:00,68.9,41.5,29.95,West,270,0.0,-999.0,37,-99.99,,,0.00,Acu-Link.com,2013-05-25 00:05:00,
2013-05-24 20:20:00,67.1,42.0,29.95,West,270,0.0,-999.0,40,-99.99,,,0.00,Acu-Link.com,2013-05-25 00:20:00,
2013-05-24 20:36:00,65.5,41.2,29.95,ESE,112,0.0,-999.0,41,-99.99,,,0.00,Acu-Link.com,2013-05-25 00:36:00,
2013-05-24 20:51:00,63.5,41.2,29.96,SSE,157,0.0,-999.0,44,-99.99,,,0.00,Acu-Link.com,2013-05-25 00:51:00,
2013-05-24 21:06:00,62.4,40.2,29.96,ESE,112,2.7,-999.0,44,-99.99,,,0.00,Acu-Link.com,2013-05-25 01:06:00,
2013-05-24 21:22:00,61.2,39.1,29.97,NNE,22,0.0,-999.0,44,-99.99,,,0.00,Acu-Link.com,2013-05-25 01:22:00,
2013-05-24 21:37:00,60.1,40.3,29.97,West,270,0.0,-999.0,48,-99.99,,,0.00,Acu-Link.com,2013-05-25 01:37:00,
2013-05-24 21:52:00,59.9,40.2,29.98,West,270,1.1,-999.0,48,-99.99,,,0.00,Acu-Link.com,2013-05-25 01:52:00,
2013-05-24 22:08:00,59.2,39.5,29.98,North,0,0.0,-999.0,48,-99.99,,,0.00,Acu-Link.com,2013-05-25 02:08:00,
2013-05-24 22:23:00,58.3,39.2,29.99,West,270,0.0,-999.0,49,-99.99,,,0.00,Acu-Link.com,2013-05-25 02:23:00,
2013-05-24 22:38:00,57.6,38.6,30.00,NW,315,0.0,-999.0,49,-99.99,,,0.00,Acu-Link.com,2013-05-25 02:38:00,
2013-05-24 22:53:00,56.7,39.3,30.00,ESE,112,1.1,-999.0,52,-99.99,,,0.00,Acu-Link.com,2013-05-25 02:53:00,
2013-05-24 23:09:00,56.1,39.7,30.01,West,270,0.0,-999.0,54,-99.99,,,0.00,Acu-Link.com,2013-05-25 03:09:00,
2013-05-24 23:24:00,55.6,39.7,30.01,WNW,292,1.7,-999.0,55,-99.99,,,0.00,Acu-Link.com,2013-05-25 03:24:00,
2013-05-24 23:39:00,56.1,39.7,30.02,South,180,0.0,-999.0,54,-99.99,,,0.00,Acu-Link.com,2013-05-25 03:39:00,
2013-05-24 23:54:00,55.2,39.8,30.03,SSW,202,0.0,-999.0,56,-99.99,,,0.00,Acu-Link.com,2013-05-25 03:54:00,